createdAt,value
2023-05-16T00:01:08.128Z,101614.72
2023-05-16T00:03:12.343Z,101614.59
2023-05-16T00:05:17.603Z,101619.00
2023-05-16T00:07:19.297Z,101617.28
2023-05-16T00:09:21.588Z,101615.47
2023-05-16T00:11:23.523Z,101608.50
2023-05-16T00:13:25.799Z,101608.38
2023-05-16T00:15:29.603Z,101607.66
2023-05-16T00:17:32.152Z,101619.22
2023-05-16T00:19:33.737Z,101607.66
2023-05-16T00:21:35.330Z,101614.84
2023-05-16T00:23:36.935Z,101612.03
2023-05-16T00:25:38.622Z,101616.41
2023-05-16T00:27:40.289Z,101611.03
2023-05-16T00:29:42.156Z,101620.81
2023-05-16T00:31:43.778Z,101609.25
2023-05-16T00:33:45.445Z,101616.31
2023-05-16T00:35:47.054Z,101612.78
2023-05-16T00:37:48.758Z,101613.72
2023-05-16T00:39:50.681Z,101609.25
2023-05-16T00:41:52.515Z,101608.38
2023-05-16T00:43:54.172Z,101610.34
2023-05-16T00:45:57.972Z,101610.19
2023-05-16T00:47:59.797Z,101614.59
2023-05-16T00:50:01.624Z,101618.13
2023-05-16T00:52:03.894Z,101607.41
2023-05-16T00:54:06.074Z,101603.66
2023-05-16T00:56:08.020Z,101607.28
2023-05-16T00:58:11.515Z,101603.00
2023-05-16T01:00:15.501Z,101609.13
2023-05-16T01:02:17.092Z,101608.25
2023-05-16T01:04:19.256Z,101607.41
2023-05-16T01:06:21.255Z,101615.47
2023-05-16T01:08:22.923Z,101615.56
2023-05-16T01:10:25.058Z,101609.34
2023-05-16T01:12:35.768Z,101612.88
2023-05-16T01:14:56.950Z,101615.47
2023-05-16T01:17:36.243Z,101619.00
2023-05-16T01:19:56.756Z,101615.47
2023-05-16T01:22:15.502Z,101606.44
2023-05-16T01:24:28.945Z,101600.31
2023-05-16T01:26:32.285Z,101614.59
2023-05-16T01:28:35.074Z,101609.25
2023-05-16T01:30:41.386Z,101612.03
2023-05-16T01:32:43.292Z,101615.69
2023-05-16T01:34:44.951Z,101613.00
2023-05-16T01:37:05.550Z,101613.84
2023-05-16T01:39:27.832Z,101614.59
2023-05-16T01:41:41.173Z,101626.19
2023-05-16T01:43:52.622Z,101616.31
2023-05-16T01:45:59.881Z,101620.81
2023-05-16T01:48:07.805Z,101624.22
2023-05-16T01:50:17.629Z,101619.00
2023-05-16T01:52:22.966Z,101619.97
2023-05-16T01:54:26.451Z,101617.28
2023-05-16T01:56:28.655Z,101616.53
2023-05-16T01:58:32.449Z,101625.44
2023-05-16T02:00:34.438Z,101621.91
2023-05-16T02:02:36.357Z,101627.25
2023-05-16T02:04:38.010Z,101620.91
2023-05-16T02:06:39.639Z,101626.19
2023-05-16T02:08:41.600Z,101627.13
2023-05-16T02:10:43.353Z,101627.03
2023-05-16T02:12:44.938Z,101626.19
2023-05-16T02:14:46.478Z,101625.19
2023-05-16T02:16:48.495Z,101624.34
2023-05-16T02:18:50.216Z,101621.91
2023-05-16T02:20:52.001Z,101625.34
2023-05-16T02:22:53.899Z,101628.13
2023-05-16T02:24:56.324Z,101636.16
2023-05-16T02:26:57.904Z,101634.31
2023-05-16T02:28:59.547Z,101636.06
2023-05-16T02:31:01.615Z,101632.50
2023-05-16T02:33:03.277Z,101628.88
2023-05-16T02:35:05.567Z,101627.88
2023-05-16T02:37:07.346Z,101634.09
2023-05-16T02:39:10.324Z,101628.88
2023-05-16T02:41:11.941Z,101633.25
2023-05-16T02:43:13.658Z,101636.91
2023-05-16T02:45:15.270Z,101641.41
2023-05-16T02:47:16.806Z,101636.06
2023-05-16T02:49:18.417Z,101635.31
2023-05-16T02:51:21.639Z,101632.63
2023-05-16T02:53:23.304Z,101635.31
2023-05-16T02:55:25.168Z,101642.25
2023-05-16T02:57:26.825Z,101636.78
2023-05-16T02:59:28.553Z,101633.25
2023-05-16T03:01:30.505Z,101643.88
2023-05-16T03:03:35.351Z,101643.88
2023-05-16T03:05:37.520Z,101641.19
2023-05-16T03:07:39.616Z,101635.91
2023-05-16T03:09:41.172Z,101644.94
2023-05-16T03:11:42.867Z,101640.44
2023-05-16T03:13:44.411Z,101641.41
2023-05-16T03:15:46.411Z,101645.03
2023-05-16T03:17:48.066Z,101642.38
2023-05-16T03:19:50.320Z,101646.78
2023-05-16T03:21:51.877Z,101645.78
2023-05-16T03:23:55.180Z,101650.31
2023-05-16T03:25:57.761Z,101649.31
2023-05-16T03:27:59.368Z,101643.97
2023-05-16T03:30:00.885Z,101654.69
2023-05-16T03:32:02.467Z,101650.41
2023-05-16T03:34:04.302Z,101658.44
2023-05-16T03:36:06.244Z,101663.81
2023-05-16T03:38:07.947Z,101659.44
2023-05-16T03:40:09.909Z,101663.94
2023-05-16T03:42:11.514Z,101668.31
2023-05-16T03:44:13.039Z,101677.34
2023-05-16T03:46:14.759Z,101675.50
2023-05-16T03:48:16.393Z,101676.25
2023-05-16T03:50:18.326Z,101677.22
2023-05-16T03:52:19.917Z,101675.38
2023-05-16T03:54:22.376Z,101682.56
2023-05-16T03:56:24.000Z,101686.09
2023-05-16T03:58:25.624Z,101697.81
2023-05-16T04:00:30.046Z,101685.38
2023-05-16T04:02:31.672Z,101682.81
2023-05-16T04:04:33.417Z,101679.28
2023-05-16T04:06:35.032Z,101696.22
2023-05-16T04:08:36.712Z,101692.69
2023-05-16T04:10:38.241Z,101694.50
2023-05-16T04:12:39.944Z,101694.41
2023-05-16T04:14:41.662Z,101693.44
2023-05-16T04:16:43.545Z,101696.97
2023-05-16T04:18:45.922Z,101703.31
2023-05-16T04:20:47.671Z,101703.31
2023-05-16T04:22:49.242Z,101703.31
2023-05-16T04:24:50.913Z,101696.22
2023-05-16T04:26:52.640Z,101708.75
2023-05-16T04:28:54.350Z,101702.69
2023-05-16T04:30:55.997Z,101706.22
2023-05-16T04:32:59.439Z,101707.91
2023-05-16T04:35:01.347Z,101707.91
2023-05-16T04:37:07.553Z,101716.81
2023-05-16T04:39:09.294Z,101712.28
2023-05-16T04:41:11.153Z,101714.13
2023-05-16T04:43:12.824Z,101716.81
2023-05-16T04:45:14.819Z,101714.03
2023-05-16T04:47:16.330Z,101707.81
2023-05-16T04:49:18.115Z,101718.53
2023-05-16T04:51:19.638Z,101715.19
2023-05-16T04:53:21.250Z,101722.28
2023-05-16T04:55:22.839Z,101720.56
2023-05-16T04:57:24.355Z,101717.88
2023-05-16T04:59:26.220Z,101717.03
2023-05-16T05:01:28.007Z,101724.13
2023-05-16T05:03:29.766Z,101728.50
2023-05-16T05:05:32.343Z,101729.47
2023-05-16T05:07:34.303Z,101728.50
2023-05-16T05:09:35.927Z,101727.66
2023-05-16T05:11:37.542Z,101734.72
2023-05-16T05:13:39.063Z,101731.28
2023-05-16T05:15:40.737Z,101724.13
2023-05-16T05:17:42.492Z,101733.97
2023-05-16T05:19:44.431Z,101725.19
2023-05-16T05:21:46.057Z,101728.72
2023-05-16T05:23:49.722Z,101732.25
2023-05-16T05:25:51.494Z,101731.28
2023-05-16T05:27:53.322Z,101731.28
2023-05-16T05:29:54.862Z,101740.06
2023-05-16T05:31:56.407Z,101739.09
2023-05-16T05:33:58.080Z,101742.75
2023-05-16T05:36:00.214Z,101736.53
2023-05-16T05:38:03.112Z,101739.22
2023-05-16T05:40:05.281Z,101743.72
2023-05-16T05:42:07.035Z,101744.69
2023-05-16T05:44:08.631Z,101743.84
2023-05-16T05:46:10.358Z,101755.53
2023-05-16T05:48:12.771Z,101752.84
2023-05-16T05:50:15.670Z,101759.19
2023-05-16T05:52:17.368Z,101752.84
2023-05-16T05:54:19.585Z,101751.88
2023-05-16T05:56:21.534Z,101756.38
2023-05-16T05:58:23.262Z,101756.28
2023-05-16T06:00:25.006Z,101756.38
2023-05-16T06:02:27.167Z,101768.09
2023-05-16T06:04:28.839Z,101765.41
2023-05-16T06:06:31.115Z,101758.31
2023-05-16T06:08:32.710Z,101753.06
2023-05-16T06:10:34.586Z,101758.44
2023-05-16T06:12:36.349Z,101763.81
2023-05-16T06:14:37.987Z,101763.81
2023-05-16T06:16:40.514Z,101761.97
2023-05-16T06:18:42.451Z,101762.81
2023-05-16T06:20:44.370Z,101772.59
2023-05-16T06:22:46.008Z,101773.53
2023-05-16T06:24:47.532Z,101771.72
2023-05-16T06:26:50.266Z,101771.84
2023-05-16T06:28:52.045Z,101768.31
2023-05-16T06:30:53.790Z,101769.28
2023-05-16T06:32:55.544Z,101782.69
2023-05-16T06:34:57.151Z,101774.66
2023-05-16T06:36:59.744Z,101777.44
2023-05-16T06:39:01.400Z,101789.97
2023-05-16T06:41:03.155Z,101779.25
2023-05-16T06:43:04.786Z,101782.91
2023-05-16T06:45:07.112Z,101780.22
2023-05-16T06:47:08.817Z,101787.28
2023-05-16T06:49:10.700Z,101781.94
2023-05-16T06:51:12.430Z,101789.97
2023-05-16T06:53:14.339Z,101788.38
2023-05-16T06:55:16.770Z,101794.72
2023-05-16T06:57:18.370Z,101793.84
2023-05-16T06:59:19.964Z,101791.19
2023-05-16T07:01:21.583Z,101792.97
2023-05-16T07:03:23.316Z,101788.50
2023-05-16T07:05:25.154Z,101790.19
2023-05-16T07:07:26.856Z,101793.72
2023-05-16T07:09:28.452Z,101785.59
2023-05-16T07:11:30.099Z,101793.63
2023-05-16T07:13:32.860Z,101789.13
2023-05-16T07:15:35.993Z,101800.78
2023-05-16T07:17:37.797Z,101799.00
2023-05-16T07:19:39.440Z,101799.00
2023-05-16T07:21:41.055Z,101795.44
2023-05-16T07:23:42.640Z,101792.88
2023-05-16T07:25:44.420Z,101801.91
2023-05-16T07:27:46.106Z,101807.97
2023-05-16T07:29:47.687Z,101811.63
2023-05-16T07:31:49.322Z,101816.88
2023-05-16T07:33:51.017Z,101813.34
2023-05-16T07:36:00.912Z,101814.19
2023-05-16T07:38:10.308Z,101817.63
2023-05-16T07:40:12.647Z,101815.78
2023-05-16T07:42:14.308Z,101821.06
2023-05-16T07:44:15.986Z,101822.00
2023-05-16T07:46:17.607Z,101821.16
2023-05-16T07:48:19.270Z,101818.59
2023-05-16T07:50:21.207Z,101818.59
2023-05-16T07:52:23.009Z,101823.13
2023-05-16T07:54:25.244Z,101812.41
2023-05-16T07:56:26.864Z,101818.47
2023-05-16T07:58:28.765Z,101815.78
2023-05-16T08:00:30.588Z,101814.84
2023-05-16T08:02:32.316Z,101803.38
2023-05-16T08:04:33.968Z,101820.22
2023-05-16T08:06:35.684Z,101817.53
2023-05-16T08:08:37.258Z,101819.31
2023-05-16T08:10:38.821Z,101818.47
2023-05-16T08:12:40.541Z,101821.16
2023-05-16T08:14:42.170Z,101815.78
2023-05-16T08:16:44.014Z,101814.09
2023-05-16T08:18:45.889Z,101810.56
2023-05-16T08:20:47.563Z,101812.16
2023-05-16T08:22:49.300Z,101802.53
2023-05-16T08:24:51.082Z,101811.19
2023-05-16T08:26:52.656Z,101812.03
2023-05-16T08:28:54.285Z,101810.13
2023-05-16T08:30:56.412Z,101811.81
2023-05-16T08:32:58.244Z,101817.19
2023-05-16T08:35:00.444Z,101816.34
2023-05-16T08:37:02.178Z,101814.50
2023-05-16T08:39:04.850Z,101822.63
2023-05-16T08:41:06.474Z,101813.66
2023-05-16T08:43:08.466Z,101825.31
2023-05-16T08:45:10.788Z,101814.59
2023-05-16T08:47:15.081Z,101815.34
2023-05-16T08:49:17.961Z,101817.19
2023-05-16T08:51:20.621Z,101816.19
2023-05-16T08:53:23.240Z,101819.72
2023-05-16T08:55:30.262Z,101822.41
2023-05-16T08:57:33.712Z,101831.34
2023-05-16T08:59:35.624Z,101822.41
2023-05-16T09:01:37.584Z,101824.25
2023-05-16T09:03:39.402Z,101820.72
2023-05-16T09:05:41.425Z,101818.03
2023-05-16T09:07:43.709Z,101816.19
2023-05-16T09:09:45.450Z,101814.38
2023-05-16T09:11:47.044Z,101817.94
2023-05-16T09:13:49.248Z,101815.97
2023-05-16T09:16:13.633Z,101820.41
2023-05-16T09:18:15.308Z,101821.34
2023-05-16T09:20:20.537Z,101823.06
2023-05-16T09:22:23.853Z,101825.75
2023-05-16T09:24:25.985Z,101819.50
2023-05-16T09:26:27.738Z,101828.44
2023-05-16T09:28:30.424Z,101824.03
2023-05-16T09:30:37.181Z,101826.69
2023-05-16T09:32:43.769Z,101831.13
2023-05-16T09:34:48.870Z,101833.66
2023-05-16T09:36:54.898Z,101829.28
2023-05-16T09:38:56.477Z,101821.97
2023-05-16T09:40:58.737Z,101829.91
2023-05-16T09:43:05.560Z,101824.56
2023-05-16T09:45:07.785Z,101819.19
2023-05-16T09:47:09.426Z,101818.34
2023-05-16T09:49:14.387Z,101815.75
2023-05-16T09:51:16.317Z,101824.66
2023-05-16T09:53:18.085Z,101821.13
2023-05-16T09:55:19.649Z,101812.97
2023-05-16T09:57:22.095Z,101822.81
2023-05-16T09:59:24.024Z,101817.47
2023-05-16T10:01:26.050Z,101825.50
2023-05-16T10:03:28.545Z,101829.78
2023-05-16T10:05:31.306Z,101828.84
2023-05-16T10:07:34.392Z,101822.59
2023-05-16T10:09:36.725Z,101823.47
2023-05-16T10:11:42.873Z,101817.22
2023-05-16T10:13:50.333Z,101816.38
2023-05-16T10:15:56.045Z,101813.69
2023-05-16T10:18:02.033Z,101823.56
2023-05-16T10:20:07.827Z,101820.03
2023-05-16T10:22:12.112Z,101798.69
2023-05-16T10:24:15.602Z,101806.50
2023-05-16T10:26:17.878Z,101806.50
2023-05-16T10:28:19.548Z,101797.38
2023-05-16T10:30:21.358Z,101807.25
2023-05-16T10:32:24.216Z,101807.16
2023-05-16T10:34:26.017Z,101807.88
2023-05-16T10:36:28.156Z,101801.81
2023-05-16T10:38:30.067Z,101810.56
2023-05-16T10:40:32.082Z,101800.81
2023-05-16T10:42:33.815Z,101808.88
2023-05-16T10:44:39.086Z,101811.56
2023-05-16T10:46:41.052Z,101812.41
2023-05-16T10:48:42.837Z,101827.50
2023-05-16T10:50:45.947Z,101810.56
2023-05-16T10:52:47.548Z,101810.47
2023-05-16T10:54:52.327Z,101810.47
2023-05-16T10:56:57.311Z,101804.97
2023-05-16T10:58:59.083Z,101814.84
2023-05-16T11:01:30.317Z,101813.88
2023-05-16T11:03:32.481Z,101812.94
2023-05-16T11:05:34.466Z,101808.50
2023-05-16T11:07:39.428Z,101798.78
2023-05-16T11:09:44.581Z,101804.13
2023-05-16T11:11:52.128Z,101802.31
2023-05-16T11:13:56.564Z,101803.16
2023-05-16T11:16:29.868Z,101798.53
2023-05-16T11:18:33.150Z,101806.59
2023-05-16T11:20:36.932Z,101796.63
2023-05-16T11:22:41.507Z,101814.41
2023-05-16T11:24:53.536Z,101810.03
2023-05-16T11:26:55.157Z,101802.94
2023-05-16T11:28:58.369Z,101801.97
2023-05-16T11:31:00.352Z,101801.09
2023-05-16T11:33:02.215Z,101801.09
2023-05-16T11:35:09.848Z,101813.66
2023-05-16T11:37:13.164Z,101798.53
2023-05-16T11:39:15.080Z,101803.78
2023-05-16T11:41:17.793Z,101803.78
2023-05-16T11:43:19.574Z,101803.78
2023-05-16T11:45:24.371Z,101801.84
2023-05-16T11:47:27.542Z,101801.00
2023-05-16T11:49:30.029Z,101793.66
2023-05-16T11:51:31.969Z,101799.03
2023-05-16T11:53:34.517Z,101793.66
2023-05-16T11:57:44.701Z,101789.19
2023-05-16T11:59:46.507Z,101791.88
2023-05-16T12:01:51.162Z,101785.75
2023-05-16T12:03:57.989Z,101791.97
2023-05-16T12:06:00.936Z,101798.19
2023-05-16T12:08:04.810Z,101789.06
2023-05-16T12:10:11.069Z,101787.22
2023-05-16T12:12:12.733Z,101779.94
2023-05-16T12:14:14.632Z,101778.09
2023-05-16T12:16:16.597Z,101785.16
2023-05-16T12:18:18.696Z,101788.25
2023-05-16T12:20:20.492Z,101779.31
2023-05-16T12:22:22.118Z,101774.84
2023-05-16T12:24:30.838Z,101774.53
2023-05-16T12:26:33.448Z,101772.47
2023-05-16T12:28:38.469Z,101790.19
2023-05-16T12:30:43.507Z,101768.63
2023-05-16T12:32:45.707Z,101783.66
2023-05-16T12:34:55.939Z,101776.19
2023-05-16T12:36:59.712Z,101783.13
2023-05-16T12:39:05.152Z,101779.97
2023-05-16T12:41:07.121Z,101782.16
2023-05-16T12:43:20.382Z,101784.94
2023-05-16T12:45:23.209Z,101773.59
2023-05-16T12:47:36.170Z,101769.81
2023-05-16T12:49:44.599Z,101785.69
2023-05-16T12:51:53.262Z,101778.84
2023-05-16T12:54:08.626Z,101781.75
2023-05-16T12:56:12.146Z,101774.22
2023-05-16T12:58:14.027Z,101776.28
2023-05-16T13:00:19.013Z,101779.84
2023-05-16T13:02:22.522Z,101782.53
2023-05-16T13:04:24.298Z,101767.72
2023-05-16T13:06:36.768Z,101759.47
2023-05-16T13:08:47.243Z,101769.44
2023-05-16T13:10:48.910Z,101775.75
2023-05-16T13:12:52.704Z,101771.75
2023-05-16T13:14:54.810Z,101772.59
2023-05-16T13:16:59.228Z,101760.03
2023-05-16T13:19:02.625Z,101769.50
2023-05-16T13:21:04.564Z,101779.91
2023-05-16T13:23:06.518Z,101776.91
2023-05-16T13:25:08.890Z,101767.44
2023-05-16T13:27:10.723Z,101774.13
2023-05-16T13:29:12.983Z,101772.81
2023-05-16T13:31:14.617Z,101764.41
2023-05-16T13:33:16.472Z,101760.91
2023-05-16T13:35:18.765Z,101757.69
2023-05-16T13:37:20.437Z,101764.06
2023-05-16T13:39:22.568Z,101774.97
2023-05-16T13:41:24.597Z,101777.53
2023-05-16T13:43:26.243Z,101780.34
2023-05-16T13:45:28.560Z,101766.97
2023-05-16T13:47:30.536Z,101767.47
2023-05-16T13:49:32.225Z,101781.41
2023-05-16T13:51:33.910Z,101775.06
2023-05-16T13:53:35.941Z,101771.22
2023-05-16T13:55:37.934Z,101778.81
2023-05-16T13:57:40.029Z,101767.88
2023-05-16T14:01:46.198Z,101779.41
2023-05-16T14:03:47.989Z,101789.66
2023-05-16T14:05:49.744Z,101781.00
2023-05-16T14:07:51.390Z,101775.84
2023-05-16T14:09:53.038Z,101776.06
2023-05-16T14:11:54.740Z,101762.34
2023-05-16T14:13:57.551Z,101781.00
2023-05-16T14:15:59.306Z,101775.38
2023-05-16T14:18:03.017Z,101779.31
2023-05-16T14:20:11.066Z,101787.44
2023-05-16T14:22:12.706Z,101786.28
2023-05-16T14:24:14.279Z,101770.25
2023-05-16T14:26:16.478Z,101792.25
2023-05-16T14:28:18.105Z,101783.34
2023-05-16T14:30:20.484Z,101793.50
2023-05-16T14:32:22.213Z,101787.31
2023-05-16T14:34:24.125Z,101783.34
2023-05-16T14:36:26.238Z,101792.13
2023-05-16T14:38:28.136Z,101773.75
2023-05-16T14:40:29.869Z,101787.97
2023-05-16T14:42:31.558Z,101788.88
2023-05-16T14:44:33.500Z,101779.75
2023-05-16T14:46:36.299Z,101788.03
2023-05-16T14:48:38.025Z,101782.91
2023-05-16T14:50:39.697Z,101776.22
2023-05-16T14:52:41.328Z,101781.44
2023-05-16T14:54:43.251Z,101783.72
2023-05-16T14:56:45.663Z,101786.53
2023-05-16T14:58:47.227Z,101788.22
2023-05-16T15:00:51.881Z,101794.38
2023-05-16T15:02:53.679Z,101779.41
2023-05-16T15:04:55.512Z,101788.53
2023-05-16T15:06:57.244Z,101784.47
2023-05-16T15:08:58.851Z,101786.72
2023-05-16T15:11:01.153Z,101773.88
2023-05-16T15:13:03.169Z,101774.41
2023-05-16T15:15:07.872Z,101778.50
2023-05-16T15:17:09.587Z,101783.53
2023-05-16T15:19:11.510Z,101777.13
2023-05-16T15:21:13.220Z,101784.84
2023-05-16T15:23:14.857Z,101780.13
2023-05-16T15:25:16.851Z,101771.75
2023-05-16T15:27:18.712Z,101773.25
2023-05-16T15:29:20.758Z,101784.63
2023-05-16T15:31:22.599Z,101780.75
2023-05-16T15:33:24.251Z,101782.38
2023-05-16T15:35:26.711Z,101783.94
2023-05-16T15:37:28.778Z,101783.22
2023-05-16T15:39:30.365Z,101781.25
2023-05-16T15:43:38.673Z,101782.66
2023-05-16T15:45:40.573Z,101777.22
2023-05-16T15:47:42.350Z,101785.75
2023-05-16T15:49:44.096Z,101786.50
2023-05-16T15:51:45.828Z,101784.47
2023-05-16T15:53:50.777Z,101791.44
2023-05-16T15:55:52.430Z,101785.09
2023-05-16T15:57:57.166Z,101776.97
2023-05-16T15:59:58.998Z,101784.75
2023-05-16T16:02:04.253Z,101782.81
2023-05-16T16:04:07.092Z,101786.25
2023-05-16T16:06:08.890Z,101786.16
2023-05-16T16:08:10.556Z,101793.31
2023-05-16T16:10:12.560Z,101796.78
2023-05-16T16:12:14.270Z,101796.66
2023-05-16T16:14:16.050Z,101796.56
2023-05-16T16:16:17.702Z,101792.06
2023-05-16T16:18:19.452Z,101805.25
2023-05-16T16:20:21.075Z,101802.34
2023-05-16T16:22:22.802Z,101803.19
2023-05-16T16:24:24.469Z,101801.34
2023-05-16T16:26:26.819Z,101801.13
2023-05-16T16:28:28.386Z,101799.31
2023-05-16T16:30:30.015Z,101802.84
2023-05-16T16:32:31.993Z,101813.47
2023-05-16T16:34:33.728Z,101800.91
2023-05-16T16:36:35.383Z,101801.69
2023-05-16T16:38:37.079Z,101792.66
2023-05-16T16:40:38.667Z,101788.06
2023-05-16T16:42:40.583Z,101796.81
2023-05-16T16:44:42.276Z,101800.25
2023-05-16T16:46:44.014Z,101788.69
2023-05-16T16:48:45.815Z,101807.09
2023-05-16T16:50:47.413Z,101801.72
2023-05-16T16:52:49.052Z,101796.38
2023-05-16T16:54:51.015Z,101795.59
2023-05-16T16:56:52.712Z,101797.44
2023-05-16T16:58:54.577Z,101806.22
2023-05-16T17:00:56.207Z,101799.91
2023-05-16T17:02:58.637Z,101803.34
2023-05-16T17:05:00.511Z,101804.19
2023-05-16T17:07:02.333Z,101811.16
2023-05-16T17:09:06.711Z,101803.81
2023-05-16T17:11:08.405Z,101798.38
2023-05-16T17:13:12.193Z,101806.28
2023-05-16T17:15:13.884Z,101811.56
2023-05-16T17:17:16.597Z,101814.31
2023-05-16T17:19:18.289Z,101806.28
2023-05-16T17:21:19.876Z,101801.81
2023-05-16T17:23:21.934Z,101818.63
2023-05-16T17:25:23.787Z,101818.63
2023-05-16T17:27:25.389Z,101809.59
2023-05-16T17:29:27.263Z,101806.91
2023-05-16T17:31:28.894Z,101813.88
2023-05-16T17:33:31.155Z,101810.13
2023-05-16T17:35:33.113Z,101811.81
2023-05-16T17:37:34.745Z,101810.88
2023-05-16T17:39:37.173Z,101815.13
2023-05-16T17:41:38.865Z,101810.66
2023-05-16T17:43:40.681Z,101821.25
2023-05-16T17:45:42.942Z,101828.31
2023-05-16T17:47:45.266Z,101821.16
2023-05-16T17:49:47.591Z,101824.53
2023-05-16T17:51:52.112Z,101826.28
2023-05-16T17:53:54.919Z,101826.03
2023-05-16T17:55:56.784Z,101830.31
2023-05-16T17:57:58.530Z,101821.19
2023-05-16T18:00:00.551Z,101827.34
2023-05-16T18:02:03.972Z,101823.88
2023-05-16T18:04:09.238Z,101826.97
2023-05-16T18:06:12.271Z,101827.72
2023-05-16T18:08:14.165Z,101830.13
2023-05-16T18:10:15.841Z,101840.16
2023-05-16T18:12:20.852Z,101840.72
2023-05-16T18:14:22.542Z,101839.81
2023-05-16T18:16:24.441Z,101842.81
2023-05-16T18:18:27.067Z,101838.53
2023-05-16T18:20:28.763Z,101845.72
2023-05-16T18:22:30.724Z,101847.31
2023-05-16T18:24:32.975Z,101847.00
2023-05-16T18:26:34.748Z,101850.63
2023-05-16T18:28:36.530Z,101861.34
2023-05-16T18:30:38.365Z,101858.91
2023-05-16T18:32:40.419Z,101861.94
2023-05-16T18:34:42.267Z,101862.03
2023-05-16T18:36:44.049Z,101857.63
2023-05-16T18:38:45.857Z,101859.56
2023-05-16T18:40:48.107Z,101870.63
2023-05-16T18:42:50.002Z,101862.78
2023-05-16T18:44:51.627Z,101867.94
2023-05-16T18:46:53.258Z,101861.72
2023-05-16T18:48:57.674Z,101869.63
2023-05-16T18:50:59.417Z,101865.25
2023-05-16T18:53:01.551Z,101874.06
2023-05-16T18:55:03.457Z,101869.63
2023-05-16T18:57:08.307Z,101866.22
2023-05-16T18:59:09.988Z,101870.97
2023-05-16T19:01:11.864Z,101879.19
2023-05-16T19:03:13.520Z,101875.97
2023-05-16T19:05:15.755Z,101875.19
2023-05-16T19:07:17.780Z,101884.84
2023-05-16T19:09:19.503Z,101876.72
2023-05-16T19:11:22.393Z,101883.03
2023-05-16T19:13:24.820Z,101881.31
2023-05-16T19:15:27.008Z,101890.00
2023-05-16T19:17:29.031Z,101883.78
2023-05-16T19:19:31.347Z,101893.66
2023-05-16T19:21:33.327Z,101899.63
2023-05-16T19:23:35.147Z,101890.97
2023-05-16T19:25:37.142Z,101901.56
2023-05-16T19:27:38.812Z,101890.13
2023-05-16T19:29:40.669Z,101897.16
2023-05-16T19:31:42.508Z,101905.09
2023-05-16T19:33:44.251Z,101897.81
2023-05-16T19:35:45.980Z,101904.91
2023-05-16T19:37:47.581Z,101903.97
2023-05-16T19:39:49.220Z,101909.97
2023-05-16T19:41:52.090Z,101916.94
2023-05-16T19:43:54.048Z,101914.03
2023-05-16T19:45:55.689Z,101921.09
2023-05-16T19:47:57.494Z,101917.44
2023-05-16T19:49:59.209Z,101915.84
2023-05-16T19:52:01.581Z,101925.38
2023-05-16T19:54:03.268Z,101922.06
2023-05-16T19:56:05.092Z,101927.53
2023-05-16T19:58:06.965Z,101934.72
2023-05-16T20:00:09.578Z,101932.13
2023-05-16T20:02:11.313Z,101936.53
2023-05-16T20:04:13.058Z,101940.06
2023-05-16T20:06:14.923Z,101941.56
2023-05-16T20:08:16.609Z,101942.19
2023-05-16T20:10:19.770Z,101947.91
2023-05-16T20:12:23.041Z,101941.03
2023-05-16T20:14:25.024Z,101943.94
2023-05-16T20:16:27.505Z,101946.50
2023-05-16T20:18:29.265Z,101944.78
2023-05-16T20:20:31.087Z,101952.72
2023-05-16T20:22:33.098Z,101950.16
2023-05-16T20:24:34.807Z,101952.84
2023-05-16T20:26:36.576Z,101957.13
2023-05-16T20:28:38.243Z,101954.31
2023-05-16T20:30:39.953Z,101958.63
2023-05-16T20:32:41.745Z,101960.31
2023-05-16T20:34:43.649Z,101956.91
2023-05-16T20:36:45.526Z,101964.19
2023-05-16T20:38:47.393Z,101959.25
2023-05-16T20:40:49.159Z,101962.06
2023-05-16T20:42:50.906Z,101963.63
2023-05-16T20:44:52.705Z,101960.22
2023-05-16T20:46:54.671Z,101961.94
2023-05-16T20:48:56.456Z,101969.75
2023-05-16T20:50:58.531Z,101969.53
2023-05-16T20:53:00.211Z,101969.63
2023-05-16T20:55:02.008Z,101975.13
2023-05-16T20:57:04.201Z,101970.53
2023-05-16T20:59:08.619Z,101978.56
2023-05-16T21:01:10.394Z,101981.03
2023-05-16T21:03:12.567Z,101988.09
2023-05-16T21:05:25.193Z,101980.34
2023-05-16T21:07:27.789Z,101985.84
2023-05-16T21:09:29.701Z,101984.13
2023-05-16T21:11:34.598Z,101991.06
2023-05-16T21:13:36.274Z,101985.84
2023-05-16T21:15:38.535Z,101982.94
2023-05-16T21:17:41.517Z,101988.84
2023-05-16T21:19:43.315Z,101991.53
2023-05-16T21:21:44.998Z,101983.91
2023-05-16T21:23:47.009Z,101984.66
2023-05-16T21:25:48.691Z,101984.78
2023-05-16T21:27:50.446Z,101988.50
2023-05-16T21:29:52.201Z,101983.50
2023-05-16T21:31:53.944Z,101983.66
2023-05-16T21:33:55.652Z,101979.63
2023-05-16T21:35:57.652Z,101987.03
2023-05-16T21:37:59.328Z,101979.94
2023-05-16T21:40:01.030Z,101986.25
2023-05-16T21:42:03.309Z,101990.22
2023-05-16T21:44:05.189Z,101995.47
2023-05-16T21:46:07.067Z,101988.16
2023-05-16T21:48:08.848Z,101992.31
2023-05-16T21:50:10.608Z,101994.03
2023-05-16T21:52:12.237Z,101996.94
2023-05-16T21:54:13.888Z,101999.84
2023-05-16T21:56:15.554Z,102007.25
2023-05-16T21:58:19.103Z,102005.72
2023-05-16T22:00:20.802Z,102005.09
2023-05-16T22:02:23.239Z,102011.66
2023-05-16T22:04:24.898Z,102003.72
2023-05-16T22:06:26.830Z,102002.09
2023-05-16T22:08:28.397Z,101992.44
2023-05-16T22:10:30.079Z,101993.44
2023-05-16T22:12:31.819Z,101997.19
2023-05-16T22:14:33.793Z,102000.84
2023-05-16T22:16:35.782Z,102004.47
2023-05-16T22:18:38.066Z,102002.97
2023-05-16T22:20:39.927Z,102008.34
2023-05-16T22:22:41.547Z,102000.28
2023-05-16T22:24:43.180Z,102011.88
2023-05-16T22:26:44.801Z,102015.53
2023-05-16T22:28:46.371Z,102007.50
2023-05-16T22:30:48.006Z,102010.03
2023-05-16T22:32:50.029Z,102009.19
2023-05-16T22:34:52.820Z,102010.03
2023-05-16T22:36:54.459Z,102004.69
2023-05-16T22:38:56.169Z,102012.63
2023-05-16T22:40:58.278Z,102009.19
2023-05-16T22:42:59.923Z,102020.75
2023-05-16T22:45:01.723Z,102011.03
2023-05-16T22:47:03.478Z,102015.53
2023-05-16T22:49:05.157Z,102020.88
2023-05-16T22:51:06.908Z,102022.59
2023-05-16T22:53:08.474Z,102027.00
2023-05-16T22:55:11.003Z,102024.22
2023-05-16T22:57:12.654Z,102030.44
2023-05-16T22:59:14.868Z,102036.63
2023-05-16T23:01:16.477Z,102033.97
2023-05-16T23:03:18.125Z,102033.88
2023-05-16T23:05:19.844Z,102031.19
2023-05-16T23:07:21.498Z,102036.56
2023-05-16T23:09:23.258Z,102034.81
2023-05-16T23:11:24.974Z,102037.50
2023-05-16T23:13:26.632Z,102034.81
2023-05-16T23:15:28.464Z,102038.38
2023-05-16T23:17:30.362Z,102040.94
2023-05-16T23:19:32.258Z,102042.75
2023-05-16T23:21:33.906Z,102041.78
2023-05-16T23:23:35.688Z,102043.41
2023-05-16T23:25:37.608Z,102043.41
2023-05-16T23:27:39.273Z,102053.16